createdAt,value
2023-01-30T00:01:49.893Z,15.35
2023-01-30T00:04:17.644Z,13.07
2023-01-30T00:06:46.811Z,16.85
2023-01-30T00:09:15.816Z,13.65
2023-01-30T00:11:43.641Z,12.48
2023-01-30T00:14:11.525Z,14.73
2023-01-30T00:16:39.270Z,12.88
2023-01-30T00:19:07.086Z,13.88
2023-01-30T00:21:35.155Z,10.65
2023-01-30T00:24:05.082Z,13.73
2023-01-30T00:26:32.992Z,13.05
2023-01-30T00:29:00.806Z,12.45
2023-01-30T00:31:31.657Z,13.40
2023-01-30T00:33:59.500Z,15.20
2023-01-30T00:36:27.210Z,12.90
2023-01-30T00:38:58.014Z,13.43
2023-01-30T00:41:48.196Z,13.55
2023-01-30T00:44:44.758Z,12.05
2023-01-30T00:47:12.852Z,13.63
2023-01-30T00:49:42.230Z,13.35
2023-01-30T00:54:37.558Z,14.38
2023-01-30T00:57:06.675Z,12.65
2023-01-30T00:59:34.941Z,11.50
2023-01-30T01:02:02.841Z,13.85
2023-01-30T01:04:30.637Z,16.70
2023-01-30T01:06:58.576Z,15.20
2023-01-30T01:09:26.337Z,14.48
2023-01-30T01:11:54.047Z,15.43
2023-01-30T01:14:23.161Z,12.70
2023-01-30T01:16:51.052Z,14.25
2023-01-30T01:19:18.778Z,14.05
2023-01-30T01:21:46.570Z,13.77
2023-01-30T01:24:15.702Z,13.90
2023-01-30T01:26:44.933Z,13.68
2023-01-30T01:29:14.479Z,16.75
2023-01-30T01:31:43.927Z,15.13
2023-01-30T01:34:11.943Z,14.73
2023-01-30T01:36:53.168Z,15.15
2023-01-30T01:39:22.200Z,12.48
2023-01-30T01:44:18.062Z,15.85
2023-01-30T01:46:51.702Z,13.30
2023-01-30T01:49:23.300Z,9.43
2023-01-30T01:51:57.627Z,13.25
2023-01-30T01:54:33.212Z,11.35
2023-01-30T01:57:03.973Z,9.90
2023-01-30T01:59:35.888Z,13.02
2023-01-30T02:02:10.034Z,11.95
2023-01-30T02:04:57.605Z,14.02
2023-01-30T02:07:26.327Z,15.32
2023-01-30T02:09:54.110Z,11.02
2023-01-30T02:12:21.966Z,14.00
2023-01-30T02:14:50.923Z,15.60
2023-01-30T02:17:20.570Z,13.50
2023-01-30T02:19:52.690Z,12.65
2023-01-30T02:23:06.641Z,12.52
2023-01-30T02:25:56.505Z,15.80
2023-01-30T02:28:46.045Z,15.80
2023-01-30T02:31:28.628Z,15.40
2023-01-30T02:34:09.517Z,11.43
2023-01-30T02:36:47.387Z,14.98
2023-01-30T02:39:25.641Z,11.82
2023-01-30T02:42:09.741Z,12.93
2023-01-30T02:44:51.589Z,14.55
2023-01-30T02:47:26.439Z,13.65
2023-01-30T02:50:01.897Z,13.23
2023-01-30T02:52:30.315Z,12.35
2023-01-30T02:54:58.169Z,15.70
2023-01-30T02:57:27.154Z,11.75
2023-01-30T03:00:02.393Z,13.57
2023-01-30T03:02:51.992Z,12.20
2023-01-30T03:05:37.513Z,13.23
2023-01-30T03:08:21.062Z,12.68
2023-01-30T03:10:55.683Z,12.90
2023-01-30T03:13:34.871Z,14.52
2023-01-30T03:16:07.691Z,12.25
2023-01-30T03:18:40.842Z,13.63
2023-01-30T03:21:09.713Z,13.20
2023-01-30T03:23:37.495Z,14.73
2023-01-30T03:26:07.053Z,14.15
2023-01-30T03:28:36.007Z,16.30
2023-01-30T03:31:04.053Z,13.13
2023-01-30T03:33:31.902Z,14.95
2023-01-30T03:36:01.234Z,14.18
2023-01-30T03:38:29.048Z,14.98
2023-01-30T03:40:56.976Z,15.40
2023-01-30T03:43:24.796Z,16.65
2023-01-30T03:45:52.599Z,12.77
2023-01-30T03:48:20.418Z,13.63
2023-01-30T03:50:48.748Z,12.05
2023-01-30T03:53:19.071Z,12.45
2023-01-30T03:55:46.924Z,12.25
2023-01-30T03:58:14.891Z,14.27
2023-01-30T04:00:42.740Z,13.70
2023-01-30T04:03:10.595Z,12.68
2023-01-30T04:05:38.900Z,12.40
2023-01-30T04:08:09.198Z,13.70
2023-01-30T04:10:38.565Z,11.48
2023-01-30T04:15:34.555Z,10.82
2023-01-30T04:18:40.310Z,12.70
2023-01-30T04:21:20.840Z,15.30
2023-01-30T04:23:48.705Z,13.75
2023-01-30T04:26:17.947Z,15.43
2023-01-30T04:31:14.707Z,12.82
2023-01-30T04:34:05.607Z,14.48
2023-01-30T04:36:33.597Z,12.88
2023-01-30T04:39:01.551Z,11.82
2023-01-30T04:41:32.714Z,11.77
2023-01-30T04:44:02.502Z,11.63
2023-01-30T04:46:49.639Z,10.50
2023-01-30T04:49:17.634Z,12.38
2023-01-30T04:51:45.366Z,13.73
2023-01-30T04:54:13.396Z,11.10
2023-01-30T04:59:11.408Z,12.38
2023-01-30T05:01:43.812Z,12.82
2023-01-30T05:04:11.591Z,12.77
2023-01-30T05:06:39.310Z,13.07
2023-01-30T05:09:07.210Z,12.15
2023-01-30T05:11:35.495Z,11.32
2023-01-30T05:14:04.609Z,11.82
2023-01-30T05:16:32.365Z,11.60
2023-01-30T05:19:00.141Z,14.00
2023-01-30T05:21:29.214Z,10.43
2023-01-30T05:23:57.643Z,10.55
2023-01-30T05:26:25.819Z,9.77
2023-01-30T05:28:54.530Z,12.65
2023-01-30T05:31:24.247Z,10.13
2023-01-30T05:33:53.033Z,10.45
2023-01-30T05:36:23.757Z,9.93
2023-01-30T05:38:51.707Z,12.90
2023-01-30T05:41:19.941Z,10.10
2023-01-30T05:43:51.141Z,11.75
2023-01-30T05:46:19.489Z,10.45
2023-01-30T05:48:48.643Z,9.55
2023-01-30T05:51:17.722Z,11.40
2023-01-30T05:53:45.494Z,8.93
2023-01-30T05:56:13.559Z,11.88
2023-01-30T05:58:41.325Z,9.63
2023-01-30T06:01:12.560Z,11.70
2023-01-30T06:03:40.513Z,11.65
2023-01-30T06:06:11.285Z,11.10
2023-01-30T06:08:39.049Z,10.02
2023-01-30T06:11:09.539Z,10.20
2023-01-30T06:13:38.426Z,10.75
2023-01-30T06:16:07.105Z,9.50
2023-01-30T06:18:35.214Z,10.63
2023-01-30T06:21:03.040Z,9.63
2023-01-30T06:23:32.684Z,9.43
2023-01-30T06:26:02.663Z,10.85
2023-01-30T06:28:31.165Z,10.43
2023-01-30T06:30:59.057Z,10.32
2023-01-30T06:33:26.954Z,10.75
2023-01-30T06:35:54.804Z,10.07
2023-01-30T06:38:22.564Z,9.15
2023-01-30T06:40:51.744Z,8.77
2023-01-30T06:43:19.879Z,8.57
2023-01-30T06:45:47.699Z,8.40
2023-01-30T06:48:15.550Z,7.68
2023-01-30T06:50:43.333Z,7.43
2023-01-30T06:53:12.012Z,7.90
2023-01-30T06:55:39.748Z,7.47
2023-01-30T06:58:10.356Z,6.80
2023-01-30T07:00:39.656Z,7.05
2023-01-30T07:03:07.525Z,6.25
2023-01-30T07:05:36.740Z,6.40
2023-01-30T07:08:04.650Z,6.68
2023-01-30T07:10:38.357Z,5.75
2023-01-30T07:13:06.177Z,6.15
2023-01-30T07:15:35.291Z,6.15
2023-01-30T07:18:03.119Z,5.35
2023-01-30T07:20:31.359Z,6.80
2023-01-30T07:22:59.295Z,5.82
2023-01-30T07:25:28.677Z,5.15
2023-01-30T07:30:25.502Z,5.78
2023-01-30T07:32:57.517Z,5.18
2023-01-30T07:35:27.067Z,5.80
2023-01-30T07:37:54.933Z,5.07
2023-01-30T07:40:23.209Z,5.75
2023-01-30T07:42:58.499Z,5.32
2023-01-30T07:45:26.691Z,5.70
2023-01-30T07:47:56.223Z,5.72
2023-01-30T07:50:24.020Z,5.95
2023-01-30T07:52:51.801Z,5.88
2023-01-30T07:55:19.951Z,5.90
2023-01-30T07:57:47.865Z,6.55
2023-01-30T08:00:16.872Z,6.10
2023-01-30T08:02:44.861Z,6.20
2023-01-30T08:05:13.993Z,6.40
2023-01-30T08:07:41.858Z,6.15
2023-01-30T08:10:12.088Z,6.35
2023-01-30T08:12:43.825Z,7.25
2023-01-30T08:15:12.164Z,7.10
2023-01-30T08:17:39.972Z,6.60
2023-01-30T08:20:08.872Z,6.72
2023-01-30T08:22:38.002Z,5.90
2023-01-30T08:25:06.684Z,6.60
2023-01-30T08:27:34.492Z,5.80
2023-01-30T08:30:02.272Z,6.32
2023-01-30T08:32:30.024Z,5.97
2023-01-30T08:34:57.768Z,5.78
2023-01-30T08:37:25.579Z,6.57
2023-01-30T08:39:54.697Z,5.30
2023-01-30T08:42:22.506Z,6.10
2023-01-30T08:44:50.293Z,5.20
2023-01-30T08:47:18.111Z,5.63
2023-01-30T08:49:45.911Z,6.13
2023-01-30T08:52:13.687Z,6.03
2023-01-30T08:54:41.460Z,5.80
2023-01-30T08:57:10.709Z,6.05
2023-01-30T08:59:38.494Z,6.00
2023-01-30T09:02:06.406Z,6.72
2023-01-30T09:04:34.368Z,5.28
2023-01-30T09:07:02.215Z,6.45
2023-01-30T09:09:30.092Z,4.80
2023-01-30T09:11:57.946Z,5.32
2023-01-30T09:14:27.197Z,4.68
2023-01-30T09:16:56.421Z,3.55
2023-01-30T09:21:52.515Z,3.42
2023-01-30T09:24:20.900Z,3.20
2023-01-30T09:26:48.765Z,3.40
2023-01-30T09:29:16.643Z,3.33
2023-01-30T09:31:45.814Z,3.03
2023-01-30T09:34:13.591Z,2.50
2023-01-30T09:36:41.520Z,3.03
2023-01-30T09:39:09.396Z,3.05
2023-01-30T09:42:03.287Z,2.80
2023-01-30T09:44:52.056Z,3.17
2023-01-30T09:47:27.979Z,2.75
2023-01-30T09:50:06.244Z,2.70
2023-01-30T09:52:54.322Z,2.55
2023-01-30T09:55:24.630Z,2.88
2023-01-30T09:57:53.594Z,2.65
2023-01-30T10:00:27.606Z,2.53
2023-01-30T10:03:03.167Z,3.03
2023-01-30T10:05:39.930Z,2.67
2023-01-30T10:08:25.404Z,2.00
2023-01-30T10:11:09.566Z,2.80
2023-01-30T10:13:58.197Z,2.40
2023-01-30T10:16:31.471Z,3.13
2023-01-30T10:19:33.593Z,2.40
2023-01-30T10:22:12.708Z,3.13
2023-01-30T10:24:53.188Z,2.65
2023-01-30T10:27:21.740Z,2.38
2023-01-30T10:29:54.087Z,2.38
2023-01-30T10:32:29.009Z,2.60
2023-01-30T10:35:05.627Z,1.90
2023-01-30T10:37:42.776Z,2.97
2023-01-30T10:40:19.767Z,3.45
2023-01-30T10:42:53.471Z,3.00
2023-01-30T10:45:28.494Z,2.63
2023-01-30T10:48:05.151Z,2.72
2023-01-30T10:50:48.931Z,2.45
2023-01-30T10:53:22.012Z,1.88
2023-01-30T10:55:53.580Z,2.97
2023-01-30T10:58:28.691Z,2.72
2023-01-30T11:01:02.083Z,3.08
2023-01-30T11:03:38.855Z,2.45
2023-01-30T11:06:12.598Z,2.78
2023-01-30T11:08:40.377Z,2.63
2023-01-30T11:11:28.552Z,2.65
2023-01-30T11:14:04.366Z,2.10
2023-01-30T11:16:32.774Z,3.47
2023-01-30T11:19:19.773Z,2.50
2023-01-30T11:21:52.346Z,2.33
2023-01-30T11:24:22.169Z,2.38
2023-01-30T11:26:50.565Z,2.92
2023-01-30T11:29:27.664Z,2.50
2023-01-30T11:31:55.745Z,1.88
2023-01-30T11:34:25.143Z,2.53
2023-01-30T11:39:29.797Z,2.47
2023-01-30T11:42:01.783Z,2.50
2023-01-30T11:44:31.318Z,2.90
2023-01-30T11:47:01.843Z,2.60
2023-01-30T11:49:47.246Z,2.65
2023-01-30T11:52:22.581Z,2.63
2023-01-30T11:54:51.186Z,2.40
2023-01-30T11:57:20.886Z,2.33
2023-01-30T11:59:55.159Z,2.25
2023-01-30T12:02:26.616Z,2.58
2023-01-30T12:04:57.892Z,2.45
2023-01-30T12:07:29.497Z,2.25
2023-01-30T12:09:59.095Z,2.00
2023-01-30T12:12:33.165Z,2.25
2023-01-30T12:15:19.651Z,2.42
2023-01-30T12:17:53.610Z,2.65
2023-01-30T12:20:30.705Z,2.35
2023-01-30T12:23:11.967Z,2.67
2023-01-30T12:25:44.549Z,2.47
2023-01-30T12:28:19.867Z,2.47
2023-01-30T12:30:51.797Z,2.42
2023-01-30T12:33:19.860Z,2.78
2023-01-30T12:35:57.280Z,2.50
2023-01-30T12:38:40.098Z,3.95
2023-01-30T12:41:20.227Z,2.63
2023-01-30T12:44:14.855Z,2.90
2023-01-30T12:47:00.637Z,2.65
2023-01-30T12:49:47.717Z,2.33
2023-01-30T12:52:48.494Z,2.78
2023-01-30T12:55:27.183Z,3.10
2023-01-30T12:58:01.402Z,2.55
2023-01-30T13:00:41.922Z,2.33
2023-01-30T13:03:24.011Z,3.20
2023-01-30T13:05:58.031Z,3.28
2023-01-30T13:08:47.084Z,2.28
2023-01-30T13:11:34.591Z,2.55
2023-01-30T13:14:08.479Z,2.72
2023-01-30T13:16:42.693Z,2.35
2023-01-30T13:19:19.256Z,2.05
2023-01-30T13:21:52.467Z,3.55
2023-01-30T13:24:26.683Z,2.35
2023-01-30T13:27:00.374Z,2.35
2023-01-30T13:29:32.337Z,2.35
2023-01-30T13:32:04.449Z,2.28
2023-01-30T13:34:36.165Z,2.55
2023-01-30T13:37:08.592Z,2.30
2023-01-30T13:39:42.382Z,2.85
2023-01-30T13:42:20.549Z,2.38
2023-01-30T13:44:51.339Z,3.10
2023-01-30T13:47:33.203Z,2.50
2023-01-30T13:50:13.733Z,2.55
2023-01-30T13:52:45.780Z,2.05
2023-01-30T13:55:26.919Z,1.83
2023-01-30T13:58:03.329Z,2.42
2023-01-30T14:00:32.545Z,2.85
2023-01-30T14:03:16.570Z,2.30
2023-01-30T14:06:02.305Z,2.88
2023-01-30T14:08:34.828Z,3.20
2023-01-30T14:11:03.140Z,2.50
2023-01-30T14:13:33.232Z,2.20
2023-01-30T14:16:04.168Z,2.15
2023-01-30T14:18:36.035Z,2.55
2023-01-30T14:21:15.560Z,2.65
2023-01-30T14:23:55.070Z,2.38
2023-01-30T14:27:00.932Z,1.90
2023-01-30T14:29:56.571Z,2.35
2023-01-30T14:32:55.296Z,3.28
2023-01-30T14:35:28.787Z,2.00
2023-01-30T14:38:11.853Z,2.88
2023-01-30T14:40:47.686Z,2.47
2023-01-30T14:43:49.709Z,2.55
2023-01-30T14:46:54.272Z,2.08
2023-01-30T14:49:36.316Z,2.80
2023-01-30T14:52:04.781Z,2.28
2023-01-30T14:54:42.144Z,3.28
2023-01-30T14:57:32.994Z,3.15
2023-01-30T15:00:16.194Z,2.60
2023-01-30T15:02:54.346Z,2.45
2023-01-30T15:05:29.598Z,2.65
2023-01-30T15:08:03.509Z,2.33
2023-01-30T15:10:55.711Z,2.85
2023-01-30T15:13:53.225Z,2.75
2023-01-30T15:16:44.823Z,3.10
2023-01-30T15:19:38.826Z,2.65
2023-01-30T15:22:17.579Z,2.33
2023-01-30T15:25:18.621Z,4.60
2023-01-30T15:28:00.449Z,2.53
2023-01-30T15:30:43.816Z,2.80
2023-01-30T15:33:29.461Z,2.53
2023-01-30T15:35:59.748Z,2.67
2023-01-30T15:43:57.236Z,2.78
2023-01-30T15:46:34.649Z,2.33
2023-01-30T15:49:35.871Z,2.70
2023-01-30T15:52:06.949Z,3.00
2023-01-30T15:54:34.995Z,2.30
2023-01-30T15:57:02.958Z,2.97
2023-01-30T15:59:35.921Z,3.28
2023-01-30T16:02:05.941Z,2.50
2023-01-30T16:04:33.741Z,2.10
2023-01-30T16:07:14.484Z,3.00
2023-01-30T16:09:49.587Z,2.78
2023-01-30T16:12:26.305Z,3.45
2023-01-30T16:15:05.706Z,2.15
2023-01-30T16:17:40.518Z,2.53
2023-01-30T16:20:14.606Z,2.65
2023-01-30T16:22:46.088Z,2.60
2023-01-30T16:25:22.933Z,2.85
2023-01-30T16:27:53.008Z,2.92
2023-01-30T16:30:25.587Z,3.00
2023-01-30T16:32:55.179Z,3.92
2023-01-30T16:35:31.724Z,4.90
2023-01-30T16:38:01.181Z,4.10
2023-01-30T16:40:33.484Z,4.30
2023-01-30T16:43:02.614Z,5.10
2023-01-30T16:46:03.088Z,4.22
2023-01-30T16:48:34.252Z,6.53
2023-01-30T16:51:13.052Z,4.88
2023-01-30T16:53:50.282Z,3.42
2023-01-30T16:56:20.333Z,4.00
2023-01-30T16:58:52.415Z,3.95
2023-01-30T17:01:22.251Z,4.07
2023-01-30T17:04:00.376Z,3.80
2023-01-30T17:06:35.162Z,3.13
2023-01-30T17:09:05.157Z,4.35
2023-01-30T17:11:36.857Z,5.30
2023-01-30T17:14:22.450Z,3.38
2023-01-30T17:17:02.256Z,3.72
2023-01-30T17:19:30.071Z,3.00
2023-01-30T17:21:59.677Z,4.25
2023-01-30T17:24:28.821Z,4.05
2023-01-30T17:27:02.294Z,8.25
2023-01-30T17:29:42.701Z,14.45
2023-01-30T17:32:12.556Z,3.95
2023-01-30T17:37:16.210Z,2.90
2023-01-30T17:39:46.137Z,2.88
2023-01-30T17:42:17.838Z,4.20
2023-01-30T17:44:45.634Z,3.58
2023-01-30T17:47:14.246Z,3.63
2023-01-30T17:49:42.003Z,2.72
2023-01-30T17:52:09.881Z,4.07
2023-01-30T17:54:37.886Z,4.13
2023-01-30T17:57:09.592Z,4.28
2023-01-30T17:59:38.766Z,2.92
2023-01-30T18:02:07.998Z,2.35
2023-01-30T18:04:35.791Z,4.07
2023-01-30T18:07:06.292Z,3.42
2023-01-30T18:09:34.148Z,3.75
2023-01-30T18:12:01.974Z,3.20
2023-01-30T18:14:29.819Z,3.13
2023-01-30T18:17:00.836Z,4.25
2023-01-30T18:19:31.493Z,2.95
2023-01-30T18:22:00.015Z,2.67
2023-01-30T18:24:27.976Z,3.40
2023-01-30T18:26:55.984Z,3.67
2023-01-30T18:29:24.078Z,7.78
2023-01-30T18:31:52.079Z,2.70
2023-01-30T18:34:21.461Z,3.28
2023-01-30T18:36:49.451Z,4.10
2023-01-30T18:39:17.366Z,4.55
2023-01-30T18:41:45.230Z,3.70
2023-01-30T18:44:13.294Z,2.67
2023-01-30T18:46:41.385Z,4.22
2023-01-30T18:49:09.368Z,3.90
2023-01-30T18:51:40.235Z,3.42
2023-01-30T18:54:08.076Z,4.18
2023-01-30T18:56:36.208Z,3.85
2023-01-30T18:59:05.766Z,3.15
2023-01-30T19:01:36.670Z,3.50
2023-01-30T19:04:06.332Z,3.70
2023-01-30T19:06:37.199Z,4.10
2023-01-30T19:09:07.284Z,4.38
2023-01-30T19:11:52.403Z,4.82
2023-01-30T19:14:20.293Z,3.00
2023-01-30T19:16:48.720Z,3.88
2023-01-30T19:19:16.758Z,3.13
2023-01-30T19:21:44.734Z,2.63
2023-01-30T19:24:16.207Z,4.38
2023-01-30T19:26:44.496Z,3.05
2023-01-30T19:29:12.431Z,2.63
2023-01-30T19:31:40.585Z,3.35
2023-01-30T19:34:08.875Z,2.47
2023-01-30T19:36:37.417Z,2.78
2023-01-30T19:39:06.991Z,5.47
2023-01-30T19:41:37.113Z,5.32
2023-01-30T19:44:07.277Z,3.13
2023-01-30T19:46:35.748Z,3.00
2023-01-30T19:49:03.772Z,3.33
2023-01-30T19:51:33.829Z,3.20
2023-01-30T19:54:04.473Z,4.10
2023-01-30T19:56:33.086Z,3.63
2023-01-30T19:59:02.908Z,3.22
2023-01-30T20:01:32.929Z,3.25
2023-01-30T20:04:02.397Z,4.10
2023-01-30T20:06:32.054Z,3.65
2023-01-30T20:09:01.395Z,3.08
2023-01-30T20:11:30.626Z,3.25
2023-01-30T20:13:59.769Z,3.28
2023-01-30T20:16:31.265Z,2.92
2023-01-30T20:19:00.634Z,3.22
2023-01-30T20:21:29.349Z,3.63
2023-01-30T20:23:57.891Z,3.53
2023-01-30T20:26:28.635Z,3.75
2023-01-30T20:28:57.256Z,7.68
2023-01-30T20:31:29.289Z,9.38
2023-01-30T20:33:58.408Z,6.30
2023-01-30T20:36:27.570Z,4.60
2023-01-30T20:38:56.691Z,4.80
2023-01-30T20:41:26.954Z,9.55
2023-01-30T20:43:57.261Z,4.18
2023-01-30T20:46:27.644Z,7.88
2023-01-30T20:48:58.145Z,3.88
2023-01-30T20:51:28.372Z,6.75
2023-01-30T20:53:58.143Z,4.38
2023-01-30T20:56:28.347Z,3.90
2023-01-30T20:58:56.085Z,3.50
2023-01-30T21:01:25.633Z,3.80
2023-01-30T21:06:42.674Z,3.55
2023-01-30T21:09:15.343Z,2.95
2023-01-30T21:11:43.360Z,3.38
2023-01-30T21:14:11.385Z,4.05
2023-01-30T21:16:39.809Z,3.58
2023-01-30T21:19:12.961Z,3.30
2023-01-30T21:21:50.286Z,2.75
2023-01-30T21:24:21.252Z,3.17
2023-01-30T21:26:49.713Z,3.33
2023-01-30T21:29:19.371Z,3.83
2023-01-30T21:31:47.644Z,3.95
2023-01-30T21:34:15.721Z,3.30
2023-01-30T21:37:04.917Z,2.72
2023-01-30T21:39:50.404Z,2.75
2023-01-30T21:42:35.544Z,3.55
2023-01-30T21:45:05.064Z,3.55
2023-01-30T21:47:32.876Z,2.97
2023-01-30T21:50:00.685Z,2.90
2023-01-30T21:52:31.880Z,3.20
2023-01-30T21:54:59.711Z,2.60
2023-01-30T21:57:27.565Z,2.80
2023-01-30T21:59:55.616Z,3.05
2023-01-30T22:02:23.420Z,3.30
2023-01-30T22:04:51.241Z,2.53
2023-01-30T22:07:19.094Z,3.17
2023-01-30T22:09:48.795Z,2.85
2023-01-30T22:12:16.556Z,2.80
2023-01-30T22:14:44.328Z,3.35
2023-01-30T22:17:12.175Z,3.15
2023-01-30T22:19:40.012Z,3.45
2023-01-30T22:22:07.783Z,2.97
2023-01-30T22:24:36.108Z,2.83
2023-01-30T22:27:05.364Z,3.17
2023-01-30T22:29:34.887Z,2.35
2023-01-30T22:32:02.739Z,3.63
2023-01-30T22:34:30.545Z,3.50
2023-01-30T22:36:58.817Z,2.63
2023-01-30T22:39:26.586Z,3.03
2023-01-30T22:41:54.984Z,3.30
2023-01-30T22:44:24.201Z,3.00
2023-01-30T22:46:52.903Z,4.22
2023-01-30T22:49:20.721Z,3.53
2023-01-30T22:51:49.063Z,3.63
2023-01-30T22:54:17.324Z,3.20
2023-01-30T22:56:46.867Z,2.90
2023-01-30T22:59:15.068Z,2.45
2023-01-30T23:01:46.291Z,2.85
2023-01-30T23:04:15.921Z,2.72
2023-01-30T23:06:46.597Z,3.00
2023-01-30T23:09:17.922Z,3.55
2023-01-30T23:12:08.864Z,2.28
2023-01-30T23:14:37.932Z,2.75
2023-01-30T23:17:21.613Z,2.70
2023-01-30T23:19:49.459Z,3.85
2023-01-30T23:22:18.039Z,2.75
2023-01-30T23:24:45.788Z,2.65
2023-01-30T23:27:13.585Z,3.22
2023-01-30T23:29:41.358Z,3.13
2023-01-30T23:32:10.525Z,2.00
2023-01-30T23:34:38.793Z,3.33
2023-01-30T23:37:06.722Z,3.08
2023-01-30T23:39:34.483Z,2.78
2023-01-30T23:42:02.224Z,2.58
2023-01-30T23:44:30.003Z,3.25
2023-01-30T23:46:57.857Z,3.22
2023-01-30T23:49:26.989Z,4.38
2023-01-30T23:51:54.722Z,3.67
2023-01-30T23:54:22.472Z,2.95
2023-01-30T23:56:50.278Z,3.65
2023-01-30T23:59:18.035Z,3.35
